Terminal Aerodrome Forecast
Issued by NWS

Home | Current Version | Previous Version | Text Only | Print | Product List | Glossary On
Versions: 1 2 3 4 5 6 7 8 9 10 11 12 13 14 15
000
FTUS43 KDVN 011100
TAFBRL
TAF
KBRL 011130Z 0112/0212 23005KT P6SM VCTS BKN050CB
      TEMPO 0112/0113 VRB10KT 2SM TSRA BR BKN035CB
     FM011500 24005KT P6SM SCT040
     FM020900 VRB02KT 4SM BR SCT200=

USA.gov is the U.S. government's official web portal to all federal, state and local government web resources and services.